Time;durP1;ratioP1;P1;durP2;ratioP2;P2;SDS_P1;SDS_P2;PMS_P1;PMS_P2;Temp;Humidity;BMP_temperature;BMP_pressure;BME280_temperature;BME280_humidity;BME280_pressure;Samples;Min_cycle;Max_cycle;Signal;HPM_P1;HPM_P2
2023/12/24 00:00:16;;;;;;;;;;;;;;;-140.72;100.00;59151.56;5104558;28;20019;-72
2023/12/24 00:02:41;;;;;;;;;;;;;;;-140.72;100.00;59137.31;5095030;28;19920;-71
2023/12/24 00:05:07;;;;;;;;;;;;;;;-140.72;100.00;59129.19;5097851;28;19924;-72
2023/12/24 00:07:32;;;;;;;;;;;;;;;-140.72;100.00;59110.91;5093341;28;19972;-71
2023/12/24 00:09:57;;;;;;;;;;;;;;;-140.72;100.00;59110.91;5101553;28;19928;-72
2023/12/24 00:12:22;;;;;;;;;;;;;;;-140.72;100.00;59143.41;5103557;28;19920;-72
2023/12/24 00:14:48;;;;;;;;;;;;;;;-140.72;100.00;59088.53;5108033;28;19920;-72
2023/12/24 00:17:13;;;;;;;;;;;;;;;-140.72;100.00;59108.88;5106054;28;20026;-72
2023/12/24 00:19:38;;;;;;;;;;;;;;;-140.72;100.00;59072.28;5110487;28;19965;-72
2023/12/24 00:22:05;;;;;;;;;;;;;;;-140.72;100.00;59054.00;5101420;28;20038;-71
2023/12/24 00:24:30;;;;;;;;;;;;;;;-140.72;100.00;59058.06;5094441;28;19951;-72
2023/12/24 00:26:56;;;;;;;;;;;;;;;-140.72;100.00;59043.81;5091425;28;19924;-72
2023/12/24 00:29:21;;;;;;;;;;;;;;;-140.72;100.00;59015.38;5097535;28;20379;-72
2023/12/24 00:31:46;;;;;;;;;;;;;;;-140.72;100.00;59039.75;5106594;28;19923;-72
2023/12/24 00:34:11;;;;;;;;;;;;;;;-140.72;100.00;59043.81;5083543;28;19923;-71
2023/12/24 00:36:37;;;;;;;;;;;;;;;-140.72;100.00;59017.41;5093234;28;20013;-72
2023/12/24 00:39:02;;;;;;;;;;;;;;;-140.72;100.00;59056.03;5082872;28;19921;-72
2023/12/24 00:41:30;;;;;;;;;;;;;;;-140.72;100.00;58976.75;5075197;28;19975;-71
2023/12/24 00:43:55;;;;;;;;;;;;;;;-140.72;100.00;59031.63;5099196;28;19923;-71
2023/12/24 00:46:20;;;;;;;;;;;;;;;-140.72;100.00;59094.63;5094219;28;19928;-72
2023/12/24 00:48:45;;;;;;;;;;;;;;;-140.72;100.00;59051.97;5093509;28;19920;-71
2023/12/24 00:51:11;;;;;;;;;;;;;;;-140.72;100.00;59076.34;5100846;28;20080;-72
2023/12/24 00:53:36;;;;;;;;;;;;;;;-140.72;100.00;59157.66;5101953;28;19920;-71
2023/12/24 00:56:02;;;;;;;;;;;;;;;-140.72;100.00;59259.28;5099460;28;19928;-71
2023/12/24 00:58:27;;;;;;;;;;;;;;;-140.72;100.00;59379.22;5103668;28;19924;-72
2023/12/24 01:00:52;;;;;;;;;;;;;;;-140.72;100.00;59476.78;5094788;28;19960;-72
2023/12/24 01:03:17;;;;;;;;;;;;;;;-140.72;100.00;59608.91;5098697;28;19935;-71
2023/12/24 01:05:43;;;;;;;;;;;;;;;-140.72;100.00;59673.97;5094973;28;19955;-72
2023/12/24 01:08:08;;;;;;;;;;;;;;;-140.72;100.00;59761.38;5088843;28;20015;-72
2023/12/24 01:10:34;;;;;;;;;;;;;;;-140.72;100.00;59893.50;5102076;28;19920;-71
2023/12/24 01:12:59;;;;;;;;;;;;;;;-140.72;100.00;60027.69;5093215;28;19920;-72
2023/12/24 01:15:25;;;;;;;;;;;;;;;-140.72;100.00;60088.69;5093191;28;20464;-71
2023/12/24 01:17:50;;;;;;;;;;;;;;;-140.72;100.00;60210.66;5096933;28;19924;-71
2023/12/24 01:20:16;;;;;;;;;;;;;;;-140.72;100.00;60300.13;5097783;28;20004;-71
2023/12/24 01:22:42;;;;;;;;;;;;;;;-140.72;100.00;60379.41;5093485;28;20001;-71
2023/12/24 01:25:07;;;;;;;;;;;;;;;-140.72;100.00;60491.25;5094860;28;20381;-72
2023/12/24 01:27:33;;;;;;;;;;;;;;;-140.72;100.00;60613.25;5110618;28;20377;-70
2023/12/24 01:29:58;;;;;;;;;;;;;;;-140.72;100.00;60702.72;5105315;28;19920;-70
2023/12/24 01:32:23;;;;;;;;;;;;;;;-140.72;100.00;60796.25;5099654;28;19989;-71
2023/12/24 01:34:48;;;;;;;;;;;;;;;-140.72;100.00;60877.59;5096067;28;19920;-71
2023/12/24 01:37:13;;;;;;;;;;;;;;;-140.72;100.00;61001.63;5094761;28;19927;-70
2023/12/24 01:39:39;;;;;;;;;;;;;;;-140.72;100.00;61085.00;5096189;28;19920;-71
2023/12/24 01:42:04;;;;;;;;;;;;;;;-140.72;100.00;61243.63;5100091;28;20378;-71
2023/12/24 01:44:29;;;;;;;;;;;;;;;-140.72;100.00;61308.72;5094978;28;19985;-71
2023/12/24 01:46:55;;;;;;;;;;;;;;;-140.72;100.00;61442.94;5103944;28;19955;-71
2023/12/24 01:49:20;;;;;;;;;;;;;;;-140.72;100.00;61520.22;5107851;28;20005;-71
2023/12/24 01:51:45;;;;;;;;;;;;;;;-140.72;100.00;61625.97;5105592;28;19977;-71
2023/12/24 01:54:12;;;;;;;;;;;;;;;-140.72;100.00;61684.97;5108088;28;19920;-72
2023/12/24 01:56:39;;;;;;;;;;;;;;;-140.72;100.00;61800.88;5108264;28;19920;-71
2023/12/24 01:59:04;;;;;;;;;;;;;;;-140.72;100.00;61896.47;5092948;28;19926;-71
2023/12/24 02:01:29;;;;;;;;;;;;;;;-140.72;100.00;61988.00;5099041;28;19920;-71
2023/12/24 02:03:55;;;;;;;;;;;;;;;-140.72;100.00;62110.06;5101600;28;19919;-71
2023/12/24 02:06:21;;;;;;;;;;;;;;;-140.72;100.00;62179.22;5097658;28;19928;-71
2023/12/24 02:08:46;;;;;;;;;;;;;;;-140.72;100.00;62248.38;5094330;28;19920;-71
2023/12/24 02:11:12;;;;;;;;;;;;;;;-140.72;100.00;62329.75;5090279;28;19968;-71
2023/12/24 02:13:37;;;;;;;;;;;;;;;-140.72;100.00;62376.53;5100270;28;20355;-70
2023/12/24 02:16:03;;;;;;;;;;;;;;;-140.72;100.00;62478.25;5079693;28;20411;-71
2023/12/24 02:18:29;;;;;;;;;;;;;;;-140.72;100.00;62606.41;5098050;28;20309;-71
2023/12/24 02:21:03;;;;;;;;;;;;;;;-140.72;100.00;62663.38;5094047;28;19920;-71
2023/12/24 02:23:29;;;;;;;;;;;;;;;-140.72;100.00;62752.88;5092018;28;19928;-70
2023/12/24 02:25:56;;;;;;;;;;;;;;;-140.72;100.00;62785.44;5097595;28;19997;-70
2023/12/24 02:28:24;;;;;;;;;;;;;;;-140.72;100.00;62862.75;5094459;28;19931;-70
2023/12/24 02:30:54;;;;;;;;;;;;;;;-140.72;100.00;62946.16;5088320;28;20400;-71
2023/12/24 02:33:20;;;;;;;;;;;;;;;-140.72;100.00;63011.25;5095887;28;20012;-70
2023/12/24 02:35:46;;;;;;;;;;;;;;;-140.72;100.00;63096.72;5102379;28;19923;-70
2023/12/24 02:38:11;;;;;;;;;;;;;;;-140.72;100.00;63110.97;5103282;28;19924;-69
2023/12/24 02:40:36;;;;;;;;;;;;;;;-140.72;100.00;63216.75;5097357;28;20015;-70
2023/12/24 02:43:01;;;;;;;;;;;;;;;-140.72;100.00;63277.78;5098366;28;19928;-69
2023/12/24 02:45:27;;;;;;;;;;;;;;;-140.72;100.00;63342.91;5096968;28;19928;-69
2023/12/24 02:47:52;;;;;;;;;;;;;;;-140.72;100.00;63465.00;5091088;28;19924;-70
2023/12/24 02:50:19;;;;;;;;;;;;;;;-140.72;100.00;63548.41;5089089;28;19928;-70
2023/12/24 02:52:44;;;;;;;;;;;;;;;-140.72;100.00;63692.91;5083387;28;20116;-70
2023/12/24 02:55:10;;;;;;;;;;;;;;;-140.72;100.00;63762.09;5074426;28;20269;-71
2023/12/24 02:57:35;;;;;;;;;;;;;;;-140.72;100.00;63829.25;5089773;28;20292;-71
2023/12/24 03:00:00;;;;;;;;;;;;;;;-140.72;100.00;63876.03;5097848;28;19935;-69
2023/12/24 03:02:26;;;;;;;;;;;;;;;-140.72;100.00;63928.94;5095881;28;20015;-70
2023/12/24 03:04:51;;;;;;;;;;;;;;;-140.72;100.00;63943.19;5093007;28;19948;-69
2023/12/24 03:07:16;;;;;;;;;;;;;;;-140.72;100.00;63973.72;5091333;28;19920;-70
2023/12/24 03:09:41;;;;;;;;;;;;;;;-140.72;100.00;64016.47;5092594;28;19921;-71
2023/12/24 03:12:07;;;;;;;;;;;;;;;-140.72;100.00;64061.22;5088277;28;20376;-69
2023/12/24 03:14:32;;;;;;;;;;;;;;;-140.72;100.00;64077.50;5075860;28;20369;-70
2023/12/24 03:16:57;;;;;;;;;;;;;;;-140.72;100.00;64108.03;5092316;28;19928;-69
2023/12/24 03:19:22;;;;;;;;;;;;;;;-140.72;100.00;64132.47;5091506;28;20274;-69
2023/12/24 03:21:47;;;;;;;;;;;;;;;-140.72;100.00;64185.38;5090781;28;20285;-69
2023/12/24 03:24:13;;;;;;;;;;;;;;;-140.72;100.00;64189.44;5096800;28;20346;-70
2023/12/24 03:26:38;;;;;;;;;;;;;;;-140.72;100.00;64236.25;5081232;28;19931;-70
2023/12/24 03:29:03;;;;;;;;;;;;;;;-140.72;100.00;64276.97;5077755;28;19981;-71
2023/12/24 03:31:29;;;;;;;;;;;;;;;-140.72;100.00;64315.63;5096983;28;19927;-70
2023/12/24 03:33:54;;;;;;;;;;;;;;;-140.72;100.00;64299.34;5090202;28;20286;-69
2023/12/24 03:36:19;;;;;;;;;;;;;;;-140.72;100.00;64354.28;5091182;28;20063;-69
2023/12/24 03:38:45;;;;;;;;;;;;;;;-140.72;100.00;64374.66;5094425;28;19948;-69
2023/12/24 03:41:10;;;;;;;;;;;;;;;-140.72;100.00;64388.91;5103377;28;20018;-70
2023/12/24 03:43:35;;;;;;;;;;;;;;;-140.72;100.00;64421.47;5081097;28;19962;-70
2023/12/24 03:46:00;;;;;;;;;;;;;;;-140.72;100.00;64376.69;5098942;28;19924;-71
2023/12/24 03:48:26;;;;;;;;;;;;;;;-140.72;100.00;64435.72;5094507;28;20063;-71
2023/12/24 03:50:51;;;;;;;;;;;;;;;-140.72;100.00;64411.28;5099786;28;19963;-71
2023/12/24 03:53:16;;;;;;;;;;;;;;;-140.72;100.00;64441.81;5097045;28;19980;-71
2023/12/24 03:55:41;;;;;;;;;;;;;;;-140.72;100.00;64490.66;5088258;28;19920;-71
2023/12/24 03:58:07;;;;;;;;;;;;;;;-140.72;100.00;64476.41;5095163;28;19928;-71
2023/12/24 04:00:32;;;;;;;;;;;;;;;-140.72;100.00;64496.75;5107863;28;20010;-71
2023/12/24 04:02:59;;;;;;;;;;;;;;;-140.72;100.00;64523.22;5106018;28;20427;-71
2023/12/24 04:05:25;;;;;;;;;;;;;;;-140.72;100.00;64547.66;5095740;28;19931;-71
2023/12/24 04:07:50;;;;;;;;;;;;;;;-140.72;100.00;64570.03;5103526;28;19920;-71
2023/12/24 04:10:15;;;;;;;;;;;;;;;-140.72;100.00;64592.44;5107889;28;19927;-71
2023/12/24 04:12:41;;;;;;;;;;;;;;;-140.72;100.00;64618.88;5086429;28;20026;-71
2023/12/24 04:15:07;;;;;;;;;;;;;;;-140.72;100.00;64582.25;5104472;28;19931;-71
2023/12/24 04:17:34;;;;;;;;;;;;;;;-140.72;100.00;64637.19;5091773;28;19928;-71
2023/12/24 04:20:00;;;;;;;;;;;;;;;-140.72;100.00;64661.63;5082915;28;20386;-71
2023/12/24 04:22:25;;;;;;;;;;;;;;;-140.72;100.00;64673.84;5096310;28;19920;-71
2023/12/24 04:24:51;;;;;;;;;;;;;;;-140.72;100.00;64692.16;5088232;28;20354;-71
2023/12/24 04:27:16;;;;;;;;;;;;;;;-140.72;100.00;64655.53;5100478;28;20407;-71
2023/12/24 04:29:41;;;;;;;;;;;;;;;-140.72;100.00;64653.50;5099378;28;20003;-71
2023/12/24 04:32:07;;;;;;;;;;;;;;;-140.72;100.00;64677.91;5091667;28;21043;-71
2023/12/24 04:34:32;;;;;;;;;;;;;;;-140.72;100.00;64686.06;5078130;28;19931;-71
2023/12/24 04:36:57;;;;;;;;;;;;;;;-140.72;100.00;64751.19;5094726;28;19934;-71
2023/12/24 04:39:24;;;;;;;;;;;;;;;-140.72;100.00;64734.91;5094012;28;19920;-71
2023/12/24 04:41:49;;;;;;;;;;;;;;;-140.72;100.00;64730.84;5093866;28;20301;-71
2023/12/24 04:44:15;;;;;;;;;;;;;;;-140.72;100.00;64751.19;5103926;28;19920;-71
2023/12/24 04:46:41;;;;;;;;;;;;;;;-140.72;100.00;64812.25;5095295;28;19931;-71
2023/12/24 04:49:06;;;;;;;;;;;;;;;-140.72;100.00;64834.63;5096447;28;19924;-71
2023/12/24 04:51:32;;;;;;;;;;;;;;;-140.72;100.00;64783.75;5102384;28;20525;-71
2023/12/24 04:53:57;;;;;;;;;;;;;;;-140.72;100.00;64818.34;5100216;28;20297;-71
2023/12/24 04:56:23;;;;;;;;;;;;;;;-140.72;100.00;64816.31;5087787;28;20400;-70
2023/12/24 04:58:48;;;;;;;;;;;;;;;-140.72;100.00;64861.09;5103865;28;19942;-70
2023/12/24 05:01:15;;;;;;;;;;;;;;;-140.72;100.00;64865.16;5104776;28;19923;-71
2023/12/24 05:03:40;;;;;;;;;;;;;;;-140.72;100.00;64877.38;5094673;28;20314;-71
2023/12/24 05:06:05;;;;;;;;;;;;;;;-140.72;100.00;64867.22;5084331;28;19928;-71
2023/12/24 05:08:30;;;;;;;;;;;;;;;-140.72;100.00;64887.56;5079244;28;19932;-71
2023/12/24 05:10:56;;;;;;;;;;;;;;;-140.72;100.00;64916.06;5102833;28;20398;-70
2023/12/24 05:13:21;;;;;;;;;;;;;;;-140.72;100.00;64950.66;5074890;28;20346;-70
2023/12/24 05:15:46;;;;;;;;;;;;;;;-140.72;100.00;64981.19;5094195;28;19921;-71
2023/12/24 05:18:11;;;;;;;;;;;;;;;-140.72;100.00;64920.13;5084107;28;20381;-71
2023/12/24 05:20:36;;;;;;;;;;;;;;;-140.72;100.00;64934.38;5090580;28;20351;-71
2023/12/24 05:23:02;;;;;;;;;;;;;;;-140.72;100.00;64950.66;5101802;28;21354;-71
2023/12/24 05:25:27;;;;;;;;;;;;;;;-140.72;100.00;64948.63;5107602;28;20387;-71
2023/12/24 05:27:52;;;;;;;;;;;;;;;-140.72;100.00;64946.59;5101121;28;20011;-71
2023/12/24 05:30:17;;;;;;;;;;;;;;;-140.72;100.00;64981.19;5088984;28;19920;-72
2023/12/24 05:32:43;;;;;;;;;;;;;;;-140.72;100.00;64995.44;5108069;28;20304;-71
2023/12/24 05:35:09;;;;;;;;;;;;;;;-140.72;100.00;64960.84;5096934;28;20303;-71
2023/12/24 05:37:34;;;;;;;;;;;;;;;-140.72;100.00;64993.41;5082230;28;19960;-73
2023/12/24 05:39:59;;;;;;;;;;;;;;;-140.72;100.00;64964.91;5060060;28;20223;-73
2023/12/24 05:42:25;;;;;;;;;;;;;;;-140.72;100.00;64987.31;5077660;28;19972;-71
2023/12/24 05:44:50;;;;;;;;;;;;;;;-140.72;100.00;64958.81;5078948;28;20023;-72
2023/12/24 05:47:15;;;;;;;;;;;;;;;-140.72;100.00;64932.34;5099690;28;19965;-72
2023/12/24 05:49:40;;;;;;;;;;;;;;;-140.72;100.00;64932.34;5091003;28;19924;-72
2023/12/24 05:52:05;;;;;;;;;;;;;;;-140.72;100.00;64977.13;5078894;28;19920;-72
2023/12/24 05:54:31;;;;;;;;;;;;;;;-140.72;100.00;64966.94;5090253;28;19984;-72
2023/12/24 05:56:56;;;;;;;;;;;;;;;-140.72;100.00;64948.63;5077312;28;19916;-71
2023/12/24 05:59:22;;;;;;;;;;;;;;;-140.72;100.00;64973.06;5096934;28;19934;-72
2023/12/24 06:01:47;;;;;;;;;;;;;;;-140.72;100.00;65001.56;5094251;28;20032;-71
2023/12/24 06:04:12;;;;;;;;;;;;;;;-140.72;100.00;64958.81;5091470;28;20387;-71
2023/12/24 06:06:41;;;;;;;;;;;;;;;-140.72;100.00;65001.56;5098161;28;20346;-72
2023/12/24 06:09:07;;;;;;;;;;;;;;;-140.72;100.00;64942.53;5097988;28;19955;-72
2023/12/24 06:11:32;;;;;;;;;;;;;;;-140.72;100.00;64983.22;5095516;28;20398;-71
2023/12/24 06:13:57;;;;;;;;;;;;;;;-140.72;100.00;64987.31;5088737;28;20012;-72
2023/12/24 06:16:23;;;;;;;;;;;;;;;-140.72;100.00;64954.75;5077160;28;19924;-74
2023/12/24 06:18:48;;;;;;;;;;;;;;;-140.72;100.00;65001.56;5104312;28;19997;-72
2023/12/24 06:21:13;;;;;;;;;;;;;;;-140.72;100.00;64983.22;5075959;28;19996;-71
2023/12/24 06:23:39;;;;;;;;;;;;;;;-140.72;100.00;64968.97;5090863;28;19929;-71
2023/12/24 06:26:05;;;;;;;;;;;;;;;-140.72;100.00;64952.69;5097590;28;19920;-70
2023/12/24 06:28:30;;;;;;;;;;;;;;;-140.72;100.00;64944.56;5092459;28;19928;-70
2023/12/24 06:30:55;;;;;;;;;;;;;;;-140.72;100.00;64987.31;5094780;28;19920;-72
2023/12/24 06:33:21;;;;;;;;;;;;;;;-140.72;100.00;64924.19;5093111;28;20397;-71
2023/12/24 06:35:46;;;;;;;;;;;;;;;-140.72;100.00;64960.84;5103742;28;19928;-72
2023/12/24 06:38:11;;;;;;;;;;;;;;;-140.72;100.00;64891.63;5089302;28;20056;-71
2023/12/24 06:40:36;;;;;;;;;;;;;;;-140.72;100.00;64907.91;5091104;28;19920;-72
2023/12/24 06:43:02;;;;;;;;;;;;;;;-140.72;100.00;64907.91;5101906;28;19964;-75
2023/12/24 06:45:27;;;;;;;;;;;;;;;-140.72;100.00;64852.97;5100541;28;19974;-72
2023/12/24 06:47:52;;;;;;;;;;;;;;;-140.72;100.00;64861.09;5095436;28;19973;-73
2023/12/24 06:50:19;;;;;;;;;;;;;;;-140.72;100.00;64808.19;5090724;28;19927;-72
2023/12/24 06:52:44;;;;;;;;;;;;;;;-140.72;100.00;64840.75;5096790;28;19970;-73
2023/12/24 06:55:11;;;;;;;;;;;;;;;-140.72;100.00;64800.03;5094612;28;19923;-71
2023/12/24 06:57:37;;;;;;;;;;;;;;;-140.72;100.00;64743.03;5074040;28;19938;-72
2023/12/24 07:00:05;;;;;;;;;;;;;;;-140.72;100.00;64722.69;5100106;28;19920;-73
2023/12/24 07:02:30;;;;;;;;;;;;;;;-140.72;100.00;64710.47;5102056;28;19924;-72
2023/12/24 07:04:55;;;;;;;;;;;;;;;-140.72;100.00;64677.91;5097296;28;20293;-74
2023/12/24 07:07:20;;;;;;;;;;;;;;;-140.72;100.00;64637.19;5099191;28;20354;-70
2023/12/24 07:09:46;;;;;;;;;;;;;;;-140.72;100.00;64604.63;5091047;28;20300;-70
2023/12/24 07:12:11;;;;;;;;;;;;;;;-140.72;100.00;64600.56;5094481;28;20390;-72
2023/12/24 07:14:37;;;;;;;;;;;;;;;-140.72;100.00;64551.72;5093315;28;20286;-72
2023/12/24 07:17:03;;;;;;;;;;;;;;;-140.72;100.00;64570.03;5102252;28;20045;-73
2023/12/24 07:19:28;;;;;;;;;;;;;;;-140.72;100.00;64523.22;5097512;28;19967;-73
2023/12/24 07:21:53;;;;;;;;;;;;;;;-140.72;100.00;64500.84;5101523;28;19965;-72
2023/12/24 07:24:18;;;;;;;;;;;;;;;-140.72;100.00;64482.50;5095563;28;19935;-72
2023/12/24 07:26:44;;;;;;;;;;;;;;;-140.72;100.00;64472.34;5097340;28;20011;-72
2023/12/24 07:29:09;;;;;;;;;;;;;;;-140.72;100.00;64433.66;5088302;28;20003;-72
2023/12/24 07:31:34;;;;;;;;;;;;;;;-140.72;100.00;64460.13;5074652;28;19920;-71
2023/12/24 07:34:00;;;;;;;;;;;;;;;-140.72;100.00;64474.38;5074973;28;20382;-71
2023/12/24 07:36:25;;;;;;;;;;;;;;;-140.72;100.00;64458.09;5094469;28;20266;-71
2023/12/24 07:38:51;;;;;;;;;;;;;;;-140.72;100.00;64527.28;5092130;28;20010;-71
2023/12/24 07:41:16;;;;;;;;;;;;;;;-140.72;100.00;64515.09;5103170;28;20018;-72
2023/12/24 07:43:42;;;;;;;;;;;;;;;-140.72;100.00;64578.19;5078074;28;20012;-72
2023/12/24 07:46:07;;;;;;;;;;;;;;;-140.72;100.00;64614.81;5097522;28;19927;-72
2023/12/24 07:48:32;;;;;;;;;;;;;;;-140.72;100.00;64639.25;5102644;28;20010;-72
2023/12/24 07:50:57;;;;;;;;;;;;;;;-140.72;100.00;64663.66;5094514;28;19919;-72
2023/12/24 07:53:23;;;;;;;;;;;;;;;-140.72;100.00;64714.56;5099807;28;19928;-72
2023/12/24 07:55:49;;;;;;;;;;;;;;;-140.72;100.00;64696.22;5106117;28;19977;-73
2023/12/24 07:58:14;;;;;;;;;;;;;;;-140.72;100.00;64755.25;5100798;28;20296;-73
2023/12/24 08:00:39;;;;;;;;;;;;;;;-140.72;100.00;64789.84;5097082;28;19931;-73
2023/12/24 08:03:05;;;;;;;;;;;;;;;-140.72;100.00;64804.09;5103640;28;19920;-73
2023/12/24 08:05:31;;;;;;;;;;;;;;;-140.72;100.00;64791.91;5105879;28;20365;-73
2023/12/24 08:07:56;;;;;;;;;;;;;;;-140.72;100.00;64861.09;5094820;28;20390;-73
2023/12/24 08:10:21;;;;;;;;;;;;;;;-140.72;100.00;64889.59;5099041;28;19920;-74
2023/12/24 08:12:47;;;;;;;;;;;;;;;-140.72;100.00;64903.84;5101001;28;20012;-73
2023/12/24 08:15:12;;;;;;;;;;;;;;;-140.72;100.00;64918.09;5097856;28;19946;-73
2023/12/24 08:17:40;;;;;;;;;;;;;;;-140.72;100.00;64940.50;5079247;28;19927;-73
2023/12/24 08:20:07;;;;;;;;;;;;;;;-140.72;100.00;64934.38;5094852;28;19920;-74
2023/12/24 08:22:32;;;;;;;;;;;;;;;-140.72;100.00;64962.88;5092873;28;19928;-73
2023/12/24 08:24:58;;;;;;;;;;;;;;;-140.72;100.00;64987.31;5079993;28;20409;-74
2023/12/24 08:27:23;;;;;;;;;;;;;;;-140.72;100.00;64954.75;5093045;28;20325;-74
2023/12/24 08:29:48;;;;;;;;;;;;;;;-140.72;100.00;64954.75;5096441;28;20399;-74
2023/12/24 08:32:13;;;;;;;;;;;;;;;-140.72;100.00;65001.56;5107903;28;19919;-76
2023/12/24 08:34:39;;;;;;;;;;;;;;;-140.72;100.00;64979.16;5100719;28;19966;-72
2023/12/24 08:37:04;;;;;;;;;;;;;;;-140.72;100.00;65011.72;5084049;28;19920;-74
2023/12/24 08:39:29;;;;;;;;;;;;;;;-140.72;100.00;65005.63;5098943;28;19931;-74
2023/12/24 08:41:54;;;;;;;;;;;;;;;-140.72;100.00;65019.88;5094426;28;19927;-75
2023/12/24 08:44:19;;;;;;;;;;;;;;;-140.72;100.00;65048.38;5075160;28;19928;-76
2023/12/24 08:46:48;;;;;;;;;;;;;;;-140.72;100.00;65019.88;5100882;28;19942;-75
2023/12/24 08:49:14;;;;;;;;;;;;;;;-140.72;100.00;65025.97;5085234;28;19928;-76
2023/12/24 08:51:39;;;;;;;;;;;;;;;-140.72;100.00;65032.09;5092112;28;20376;-76
2023/12/24 08:54:05;;;;;;;;;;;;;;;-140.72;100.00;65093.16;5088906;28;20010;-78
2023/12/24 08:56:34;;;;;;;;;;;;;;;-140.72;100.00;65044.31;5096568;28;20313;-75
2023/12/24 08:58:59;;;;;;;;;;;;;;;-140.72;100.00;65052.44;5101767;28;19928;-73
2023/12/24 09:01:24;;;;;;;;;;;;;;;-140.72;100.00;65107.41;5075967;28;19920;-73
2023/12/24 09:03:49;;;;;;;;;;;;;;;-140.72;100.00;65091.13;5080982;28;19963;-72
2023/12/24 09:06:14;;;;;;;;;;;;;;;-140.72;100.00;65117.59;5076432;28;19920;-76
2023/12/24 09:08:40;;;;;;;;;;;;;;;-140.72;100.00;65109.44;5099509;28;19923;-73
2023/12/24 09:11:05;;;;;;;;;;;;;;;-140.72;100.00;65135.91;5092053;28;19924;-73
2023/12/24 09:13:30;;;;;;;;;;;;;;;-140.72;100.00;65139.97;5095918;28;20201;-73
2023/12/24 09:15:55;;;;;;;;;;;;;;;-140.72;100.00;65111.47;5077599;28;19920;-73
2023/12/24 09:18:20;;;;;;;;;;;;;;;-140.72;100.00;65127.75;5094401;28;19920;-73
2023/12/24 09:20:46;;;;;;;;;;;;;;;-140.72;100.00;65111.47;5095435;28;20057;-73
2023/12/24 09:23:11;;;;;;;;;;;;;;;-140.72;100.00;65101.28;5093441;28;20041;-73
2023/12/24 09:25:36;;;;;;;;;;;;;;;-140.72;100.00;65066.69;5100829;28;19977;-73
2023/12/24 09:28:01;;;;;;;;;;;;;;;-140.72;100.00;65080.94;5108000;28;19920;-73
2023/12/24 09:30:27;;;;;;;;;;;;;;;-140.72;100.00;65064.66;5094611;28;19927;-74
2023/12/24 09:32:52;;;;;;;;;;;;;;;-140.72;100.00;65046.34;5095904;28;19980;-73
2023/12/24 09:35:17;;;;;;;;;;;;;;;-140.72;100.00;65001.56;5094544;28;20330;-73
2023/12/24 09:37:43;;;;;;;;;;;;;;;-140.72;100.00;64979.16;5096386;28;19920;-73
2023/12/24 09:40:08;;;;;;;;;;;;;;;-140.72;100.00;64942.53;5100210;28;19920;-74
2023/12/24 09:42:34;;;;;;;;;;;;;;;-140.72;100.00;64924.19;5075666;28;20296;-76
2023/12/24 09:45:00;;;;;;;;;;;;;;;-140.72;100.00;64881.47;5098921;28;19928;-73
2023/12/24 09:47:25;;;;;;;;;;;;;;;-140.72;100.00;64869.25;5079796;28;19920;-73
2023/12/24 09:49:50;;;;;;;;;;;;;;;-140.72;100.00;64852.97;5078557;28;19932;-73
2023/12/24 09:52:15;;;;;;;;;;;;;;;-140.72;100.00;64783.75;5103214;28;19927;-73
2023/12/24 09:54:42;;;;;;;;;;;;;;;-140.72;100.00;64775.63;5101948;28;20345;-76
2023/12/24 09:57:07;;;;;;;;;;;;;;;-140.72;100.00;64738.97;5098781;28;19924;-74
2023/12/24 09:59:32;;;;;;;;;;;;;;;-140.72;100.00;64714.56;5095530;28;19945;-73
2023/12/24 10:01:58;;;;;;;;;;;;;;;-140.72;100.00;64665.69;5091793;28;19920;-73
2023/12/24 10:04:23;;;;;;;;;;;;;;;-140.72;100.00;64635.16;5096689;28;19967;-73
2023/12/24 10:06:58;;;;;;;;;;;;;;;-140.72;100.00;64604.63;5095750;28;19920;-74
2023/12/24 10:09:24;;;;;;;;;;;;;;;-140.72;100.00;64600.56;5088868;28;19967;-74
2023/12/24 10:12:05;;;;;;;;;;;;;;;-140.72;100.00;64565.97;5102509;28;19965;-74
2023/12/24 10:14:31;;;;;;;;;;;;;;;-140.72;100.00;64525.25;5089148;28;19938;-73
2023/12/24 10:16:58;;;;;;;;;;;;;;;-140.72;100.00;64494.72;5090439;28;19919;-73
2023/12/24 10:19:24;;;;;;;;;;;;;;;-140.72;100.00;64478.44;5096620;28;19928;-73
2023/12/24 10:21:58;;;;;;;;;;;;;;;-140.72;100.00;64421.47;5093275;28;19920;-74
2023/12/24 10:24:24;;;;;;;;;;;;;;;-140.72;100.00;64441.81;5101700;28;20411;-72
2023/12/24 10:26:49;;;;;;;;;;;;;;;-140.72;100.00;64454.03;5093300;28;19928;-72
2023/12/24 10:29:20;;;;;;;;;;;;;;;-140.72;100.00;64496.75;5087313;28;20007;-72
2023/12/24 10:31:51;;;;;;;;;;;;;;;-140.72;100.00;64519.16;5088290;28;20014;-71
2023/12/24 10:34:20;;;;;;;;;;;;;;;-140.72;100.00;64555.78;5098599;28;19945;-71
2023/12/24 10:36:46;;;;;;;;;;;;;;;-140.72;100.00;64610.75;5084250;28;19920;-71
2023/12/24 10:39:13;;;;;;;;;;;;;;;-140.72;100.00;64604.63;5111987;28;20369;-71
2023/12/24 10:41:38;;;;;;;;;;;;;;;-140.72;100.00;64671.81;5094237;28;19936;-71
2023/12/24 10:44:04;;;;;;;;;;;;;;;-140.72;100.00;64677.91;5097056;28;19931;-71
2023/12/24 10:46:29;;;;;;;;;;;;;;;-140.72;100.00;64763.41;5085981;28;19916;-72
2023/12/24 10:48:54;;;;;;;;;;;;;;;-140.72;100.00;64810.22;5092895;28;19938;-71
2023/12/24 10:51:20;;;;;;;;;;;;;;;-140.72;100.00;64877.38;5080200;28;20281;-72
2023/12/24 10:53:45;;;;;;;;;;;;;;;-140.72;100.00;64887.56;5081291;28;20728;-72
2023/12/24 10:56:14;;;;;;;;;;;;;;;-140.72;100.00;64893.66;5092694;28;19948;-73
2023/12/24 10:58:54;;;;;;;;;;;;;;;-140.72;100.00;65040.22;5079769;28;20370;-71
2023/12/24 11:01:19;;;;;;;;;;;;;;;-140.72;100.00;65085.00;5075039;28;19960;-71
2023/12/24 11:03:47;;;;;;;;;;;;;;;-140.72;100.00;65074.84;5094185;28;19926;-73
2023/12/24 11:06:32;;;;;;;;;;;;;;;-140.72;100.00;65154.22;5102524;28;19926;-71
2023/12/24 11:08:57;;;;;;;;;;;;;;;-140.72;100.00;65180.69;5096063;28;20235;-71
2023/12/24 11:11:23;;;;;;;;;;;;;;;-140.72;100.00;65174.59;5096485;28;20036;-71
2023/12/24 11:13:48;;;;;;;;;;;;;;;-140.72;100.00;65182.72;5099420;28;19963;-71
2023/12/24 11:16:33;;;;;;;;;;;;;;;-140.72;100.00;65201.03;5082407;28;19921;-71
2023/12/24 11:18:58;;;;;;;;;;;;;;;-140.72;100.00;65215.28;5102873;28;19924;-72
2023/12/24 11:21:24;;;;;;;;;;;;;;;-140.72;100.00;65247.88;5102606;28;20019;-74
2023/12/24 11:24:07;;;;;;;;;;;;;;;-140.72;100.00;65223.44;5096218;28;20059;-74
2023/12/24 11:26:32;;;;;;;;;;;;;;;-140.72;100.00;65241.75;5094238;28;20317;-72
2023/12/24 11:29:02;;;;;;;;;;;;;;;-140.72;100.00;65272.28;5093672;28;19976;-72
2023/12/24 11:31:28;;;;;;;;;;;;;;;-140.72;100.00;65223.44;5099375;28;19920;-72
2023/12/24 11:33:56;;;;;;;;;;;;;;;-140.72;100.00;65288.56;5095954;28;20385;-71
2023/12/24 11:36:23;;;;;;;;;;;;;;;-140.72;100.00;65286.53;5106127;28;19984;-71
2023/12/24 11:38:57;;;;;;;;;;;;;;;-140.72;100.00;65300.78;5096444;28;20030;-72
2023/12/24 11:41:23;;;;;;;;;;;;;;;-140.72;100.00;65315.03;5101782;28;19935;-72
2023/12/24 11:43:55;;;;;;;;;;;;;;;-140.72;100.00;65310.97;5098864;28;20015;-71
2023/12/24 11:46:22;;;;;;;;;;;;;;;-140.72;100.00;65308.94;5087407;28;19923;-71
2023/12/24 11:48:47;;;;;;;;;;;;;;;-140.72;100.00;65339.47;5099437;28;19921;-71
2023/12/24 11:51:12;;;;;;;;;;;;;;;-140.72;100.00;65308.94;5104595;28;20008;-72
2023/12/24 11:53:38;;;;;;;;;;;;;;;-140.72;100.00;65280.44;5097193;28;20362;-72
2023/12/24 11:56:04;;;;;;;;;;;;;;;-140.72;100.00;65325.22;5086834;28;19936;-72
2023/12/24 11:58:29;;;;;;;;;;;;;;;-140.72;100.00;65304.88;5092697;28;19920;-72
2023/12/24 12:00:54;;;;;;;;;;;;;;;-140.72;100.00;65298.75;5103362;28;20365;-75
2023/12/24 12:03:19;;;;;;;;;;;;;;;-140.72;100.00;65262.13;5076521;28;20263;-75
2023/12/24 12:05:45;;;;;;;;;;;;;;;-140.72;100.00;65278.41;5074291;28;20351;-72
2023/12/24 12:08:10;;;;;;;;;;;;;;;-140.72;100.00;65260.06;5089562;28;20330;-71
2023/12/24 12:10:38;;;;;;;;;;;;;;;-140.72;100.00;65276.38;5078953;28;19952;-71